createdAt,value
2023-01-22T00:01:15.902Z,103192.56
2023-01-22T00:04:00.967Z,103190.84
2023-01-22T00:06:46.210Z,103176.00
2023-01-22T00:09:31.704Z,103193.38
2023-01-22T00:12:16.854Z,103186.50
2023-01-22T00:15:01.925Z,103182.13
2023-01-22T00:17:47.247Z,103168.03
2023-01-22T00:20:32.195Z,103167.19
2023-01-22T00:23:18.339Z,103171.44
2023-01-22T00:26:06.221Z,103182.75
2023-01-22T00:28:51.876Z,103168.59
2023-01-22T00:31:37.605Z,103181.69
2023-01-22T00:34:22.685Z,103157.53
2023-01-22T00:37:07.651Z,103175.84
2023-01-22T00:39:52.575Z,103131.63
2023-01-22T00:42:39.418Z,103169.59
2023-01-22T00:45:24.385Z,103181.66
2023-01-22T00:48:09.326Z,103162.56
2023-01-22T00:50:54.515Z,103164.34
2023-01-22T00:53:43.735Z,103163.66
2023-01-22T00:56:28.795Z,103174.81
2023-01-22T00:59:14.090Z,103171.38
2023-01-22T01:01:59.180Z,103178.16
2023-01-22T01:04:44.367Z,103177.19
2023-01-22T01:07:29.410Z,103184.94
2023-01-22T01:10:14.884Z,103186.84
2023-01-22T01:13:00.008Z,103178.22
2023-01-22T01:15:44.903Z,103190.19
2023-01-22T01:18:31.172Z,103182.44
2023-01-22T01:21:17.972Z,103150.41
2023-01-22T01:24:03.319Z,103179.09
2023-01-22T01:26:48.545Z,103180.91
2023-01-22T01:29:33.587Z,103181.81
2023-01-22T01:32:18.576Z,103179.25
2023-01-22T01:35:04.841Z,103195.66
2023-01-22T01:37:52.298Z,103169.88
2023-01-22T01:40:44.603Z,103183.94
2023-01-22T01:43:30.028Z,103184.75
2023-01-22T01:46:22.534Z,103178.78
2023-01-22T01:49:15.995Z,103176.28
2023-01-22T01:52:04.843Z,103183.94
2023-01-22T01:54:53.031Z,103179.75
2023-01-22T01:57:39.424Z,103184.91
2023-01-22T02:00:28.496Z,103181.41
2023-01-22T02:03:13.912Z,103184.09
2023-01-22T02:05:59.094Z,103181.63
2023-01-22T02:08:47.040Z,103180.03
2023-01-22T02:11:33.809Z,103177.47
2023-01-22T02:14:24.062Z,103168.78
2023-01-22T02:17:15.963Z,103175.88
2023-01-22T02:20:01.047Z,103165.53
2023-01-22T02:22:46.391Z,103167.06
2023-01-22T02:25:33.935Z,103151.53
2023-01-22T02:28:19.730Z,103166.28
2023-01-22T02:31:04.859Z,103167.06
2023-01-22T02:33:50.129Z,103175.63
2023-01-22T02:36:37.110Z,103166.97
2023-01-22T02:39:22.418Z,103167.72
2023-01-22T02:42:08.751Z,103171.13
2023-01-22T02:44:53.893Z,103174.44
2023-01-22T02:47:39.125Z,103183.94
2023-01-22T02:50:24.476Z,103161.38
2023-01-22T02:53:09.596Z,103170.91
2023-01-22T02:55:54.704Z,103180.34
2023-01-22T02:58:39.940Z,103185.41
2023-01-22T03:01:25.403Z,103185.38
2023-01-22T03:04:10.978Z,103163.72
2023-01-22T03:06:55.846Z,103172.34
2023-01-22T03:09:41.234Z,103174.91
2023-01-22T03:12:26.108Z,103168.00
2023-01-22T03:15:30.364Z,103182.66
2023-01-22T03:18:34.600Z,103182.63
2023-01-22T03:21:20.315Z,103168.72
2023-01-22T03:24:05.592Z,103188.75
2023-01-22T03:26:50.716Z,103188.66
2023-01-22T03:29:38.585Z,103192.84
2023-01-22T03:32:24.268Z,103185.00
2023-01-22T03:35:09.271Z,103185.75
2023-01-22T03:37:54.145Z,103191.81
2023-01-22T03:40:39.132Z,103158.19
2023-01-22T03:43:24.134Z,103177.25
2023-01-22T03:46:12.158Z,103177.13
2023-01-22T03:48:57.577Z,103172.78
2023-01-22T03:51:44.004Z,103174.50
2023-01-22T03:54:29.218Z,103165.06
2023-01-22T03:57:14.202Z,103154.63
2023-01-22T04:00:02.056Z,103162.44
2023-01-22T04:02:49.189Z,103171.97
2023-01-22T04:05:34.019Z,103165.88
2023-01-22T04:08:19.731Z,103166.75
2023-01-22T04:11:05.579Z,103164.16
2023-01-22T04:13:50.622Z,103171.31
2023-01-22T04:16:35.979Z,103164.28
2023-01-22T04:19:21.060Z,103167.59
2023-01-22T04:22:06.070Z,103176.88
2023-01-22T04:24:51.145Z,103178.53
2023-01-22T04:27:37.802Z,103150.84
2023-01-22T04:30:23.312Z,103169.06
2023-01-22T04:33:09.153Z,103170.75
2023-01-22T04:35:55.337Z,103171.63
2023-01-22T04:38:40.517Z,103168.19
2023-01-22T04:41:25.727Z,103165.56
2023-01-22T04:44:10.970Z,103152.59
2023-01-22T04:46:56.160Z,103169.66
2023-01-22T04:49:41.366Z,103149.72
2023-01-22T04:52:26.538Z,103178.47
2023-01-22T04:55:12.051Z,103163.88
2023-01-22T04:57:59.428Z,103177.63
2023-01-22T05:00:44.513Z,103167.41
2023-01-22T05:03:29.673Z,103169.22
2023-01-22T05:06:14.558Z,103162.63
2023-01-22T05:08:59.685Z,103119.16
2023-01-22T05:11:44.689Z,103161.53
2023-01-22T05:14:29.734Z,103157.97
2023-01-22T05:17:14.728Z,103151.63
2023-01-22T05:19:59.650Z,103146.56
2023-01-22T05:22:44.926Z,103160.41
2023-01-22T05:25:29.917Z,103155.22
2023-01-22T05:28:14.885Z,103158.59
2023-01-22T05:31:00.200Z,103162.06
2023-01-22T05:33:45.591Z,103165.31
2023-01-22T05:36:30.995Z,103159.09
2023-01-22T05:39:17.197Z,103165.91
2023-01-22T05:42:02.346Z,103151.13
2023-01-22T05:44:47.420Z,103168.44
2023-01-22T05:47:38.233Z,103161.44
2023-01-22T05:50:23.350Z,103155.47
2023-01-22T05:53:08.886Z,103153.09
2023-01-22T05:55:53.864Z,103157.63
2023-01-22T05:58:38.828Z,103161.03
2023-01-22T06:01:24.548Z,103155.72
2023-01-22T06:04:09.653Z,103146.84
2023-01-22T06:06:54.985Z,103156.19
2023-01-22T06:09:40.238Z,103154.41
2023-01-22T06:12:25.273Z,103151.78
2023-01-22T06:15:11.269Z,103158.69
2023-01-22T06:18:01.557Z,103118.75
2023-01-22T06:20:47.430Z,103145.56
2023-01-22T06:23:33.105Z,103165.38
2023-01-22T06:26:18.269Z,103155.94
2023-01-22T06:29:03.750Z,103142.03
2023-01-22T06:31:48.979Z,103166.72
2023-01-22T06:34:34.834Z,103150.53
2023-01-22T06:37:21.205Z,103153.16
2023-01-22T06:40:06.703Z,103154.69
2023-01-22T06:42:52.120Z,103129.53
2023-01-22T06:45:38.361Z,103156.53
2023-01-22T06:48:23.818Z,103169.28
2023-01-22T06:51:09.891Z,103169.97
2023-01-22T06:53:54.860Z,103177.63
2023-01-22T06:56:39.889Z,103175.13
2023-01-22T06:59:24.795Z,103175.19
2023-01-22T07:02:16.640Z,103186.31
2023-01-22T07:05:01.578Z,103161.25
2023-01-22T07:07:47.892Z,103182.38
2023-01-22T07:10:33.217Z,103185.03
2023-01-22T07:13:18.350Z,103177.25
2023-01-22T07:16:05.080Z,103181.66
2023-01-22T07:18:50.249Z,103180.78
2023-01-22T07:21:35.393Z,103187.59
2023-01-22T07:24:20.391Z,103183.22
2023-01-22T07:27:05.193Z,103191.66
2023-01-22T07:29:50.457Z,103186.66
2023-01-22T07:32:36.069Z,103161.38
2023-01-22T07:35:21.291Z,103166.56
2023-01-22T07:38:07.740Z,103188.28
2023-01-22T07:40:53.637Z,103192.72
2023-01-22T07:43:38.963Z,103191.91
2023-01-22T07:46:23.926Z,103202.22
2023-01-22T07:49:11.033Z,103187.56
2023-01-22T07:51:55.961Z,103198.75
2023-01-22T07:54:40.874Z,103202.13
2023-01-22T07:57:25.906Z,103206.47
2023-01-22T08:00:12.939Z,103209.97
2023-01-22T08:02:58.009Z,103210.81
2023-01-22T08:05:43.767Z,103215.94
2023-01-22T08:08:28.823Z,103220.28
2023-01-22T08:11:14.368Z,103223.78
2023-01-22T08:13:59.503Z,103226.56
2023-01-22T08:16:44.531Z,103224.19
2023-01-22T08:19:29.703Z,103219.91
2023-01-22T08:22:14.703Z,103223.34
2023-01-22T08:24:59.989Z,103218.06
2023-01-22T08:27:44.823Z,103199.81
2023-01-22T08:30:29.785Z,103203.38
2023-01-22T08:33:15.902Z,103226.69
2023-01-22T08:36:01.345Z,103218.91
2023-01-22T08:38:46.606Z,103213.72
2023-01-22T08:41:31.347Z,103212.13
2023-01-22T08:44:16.450Z,103192.03
2023-01-22T08:47:01.634Z,103213.72
2023-01-22T08:49:46.567Z,103177.16
2023-01-22T08:52:31.586Z,103217.13
2023-01-22T08:55:16.678Z,103213.91
2023-01-22T08:58:02.007Z,103220.84
2023-01-22T09:00:46.850Z,103221.81
2023-01-22T09:03:31.845Z,103238.28
2023-01-22T09:06:17.899Z,103236.63
2023-01-22T09:09:03.786Z,103246.06
2023-01-22T09:11:48.757Z,103237.63
2023-01-22T09:14:34.006Z,103216.09
2023-01-22T09:17:19.360Z,103240.50
2023-01-22T09:20:04.593Z,103244.91
2023-01-22T09:22:49.834Z,103250.06
2023-01-22T09:25:35.004Z,103217.13
2023-01-22T09:28:20.267Z,103263.16
2023-01-22T09:31:05.503Z,103267.56
2023-01-22T09:33:51.200Z,103248.59
2023-01-22T09:36:36.492Z,103269.56
2023-01-22T09:39:21.499Z,103275.75
2023-01-22T09:42:15.004Z,103266.44
2023-01-22T09:45:06.587Z,103265.88
2023-01-22T09:47:58.242Z,103261.75
2023-01-22T09:50:44.646Z,103254.03
2023-01-22T09:53:30.397Z,103270.63
2023-01-22T09:56:22.078Z,103273.41
2023-01-22T09:59:16.310Z,103269.16
2023-01-22T10:02:20.179Z,103250.31
2023-01-22T10:05:20.027Z,103259.22
2023-01-22T10:08:12.440Z,103270.78
2023-01-22T10:11:01.049Z,103264.03
2023-01-22T10:13:49.687Z,103274.47
2023-01-22T10:16:34.920Z,103271.22
2023-01-22T10:19:27.070Z,103254.06
2023-01-22T10:22:20.550Z,103252.56
2023-01-22T10:25:06.897Z,103255.47
2023-01-22T10:28:01.151Z,103250.59
2023-01-22T10:30:48.423Z,103256.69
2023-01-22T10:33:38.858Z,103253.41
2023-01-22T10:36:23.993Z,103246.66
2023-01-22T10:39:12.102Z,103252.91
2023-01-22T10:42:02.191Z,103247.78
2023-01-22T10:44:47.370Z,103239.28
2023-01-22T10:47:32.610Z,103236.00
2023-01-22T10:50:18.101Z,103247.28
2023-01-22T10:53:04.531Z,103222.34
2023-01-22T10:55:55.765Z,103234.63
2023-01-22T10:58:48.117Z,103219.09
2023-01-22T11:01:36.907Z,103233.91
2023-01-22T11:04:26.256Z,103234.88
2023-01-22T11:07:17.594Z,103202.09
2023-01-22T11:10:19.345Z,103193.59
2023-01-22T11:13:16.329Z,103230.94
2023-01-22T11:16:16.326Z,103218.88
2023-01-22T11:19:18.167Z,103244.03
2023-01-22T11:22:17.292Z,103238.09
2023-01-22T11:25:03.178Z,103227.78
2023-01-22T11:28:02.466Z,103212.28
2023-01-22T11:30:54.691Z,103236.56
2023-01-22T11:34:26.302Z,103250.44
2023-01-22T11:37:14.155Z,103232.31
2023-01-22T11:40:21.479Z,103215.91
2023-01-22T11:43:47.761Z,103247.97
2023-01-22T11:46:35.869Z,103252.34
2023-01-22T11:49:39.095Z,103245.47
2023-01-22T11:52:39.137Z,103238.56
2023-01-22T11:55:56.472Z,103243.78
2023-01-22T11:59:09.330Z,103230.84
2023-01-22T12:02:30.069Z,103236.00
2023-01-22T12:05:50.945Z,103237.75
2023-01-22T12:08:49.911Z,103238.63
2023-01-22T12:11:58.260Z,103229.97
2023-01-22T12:15:02.554Z,103238.63
2023-01-22T12:17:59.751Z,103217.88
2023-01-22T12:21:06.604Z,103236.00
2023-01-22T12:23:56.865Z,103233.41
2023-01-22T12:26:52.254Z,103235.06
2023-01-22T12:29:43.082Z,103228.94
2023-01-22T12:32:31.786Z,103227.16
2023-01-22T12:35:20.305Z,103187.34
2023-01-22T12:38:12.512Z,103170.03
2023-01-22T12:41:19.981Z,103213.91
2023-01-22T12:44:24.666Z,103208.63
2023-01-22T12:47:36.026Z,103203.28
2023-01-22T12:50:25.009Z,103208.72
2023-01-22T12:53:29.002Z,103203.72
2023-01-22T12:56:13.891Z,103208.16
2023-01-22T12:58:59.349Z,103195.25
2023-01-22T13:01:44.470Z,103203.06
2023-01-22T13:04:31.874Z,103204.81
2023-01-22T13:07:35.721Z,103205.72
2023-01-22T13:10:21.489Z,103200.56
2023-01-22T13:13:12.919Z,103204.88
2023-01-22T13:16:25.911Z,103204.75
2023-01-22T13:19:30.834Z,103191.63
2023-01-22T13:22:23.371Z,103195.88
2023-01-22T13:25:26.763Z,103188.91
2023-01-22T13:28:17.306Z,103178.59
2023-01-22T13:31:13.447Z,103188.03
2023-01-22T13:34:08.775Z,103194.06
2023-01-22T13:36:55.664Z,103192.22
2023-01-22T13:39:40.854Z,103193.13
2023-01-22T13:42:27.323Z,103165.47
2023-01-22T13:45:19.336Z,103165.38
2023-01-22T13:48:06.353Z,103186.00
2023-01-22T13:51:05.867Z,103185.16
2023-01-22T13:53:54.689Z,103187.06
2023-01-22T13:56:40.622Z,103169.97
2023-01-22T13:59:28.554Z,103174.38
2023-01-22T14:02:20.109Z,103187.31
2023-01-22T14:05:17.447Z,103181.13
2023-01-22T14:08:09.151Z,103185.41
2023-01-22T14:10:58.901Z,103178.44
2023-01-22T14:13:45.925Z,103168.84
2023-01-22T14:16:40.498Z,103168.00
2023-01-22T14:19:25.964Z,103150.72
2023-01-22T14:22:10.896Z,103142.16
2023-01-22T14:24:56.532Z,103149.97
2023-01-22T14:27:42.991Z,103152.59
2023-01-22T14:30:28.258Z,103150.06
2023-01-22T14:33:19.026Z,103146.56
2023-01-22T14:36:04.352Z,103144.84
2023-01-22T14:38:51.359Z,103140.53
2023-01-22T14:41:36.657Z,103138.81
2023-01-22T14:44:22.224Z,103142.31
2023-01-22T14:47:07.133Z,103140.63
2023-01-22T14:49:52.328Z,103142.41
2023-01-22T14:52:38.232Z,103137.22
2023-01-22T14:55:23.366Z,103145.88
2023-01-22T14:58:10.084Z,103142.38
2023-01-22T15:00:55.277Z,103131.19
2023-01-22T15:03:40.157Z,103148.47
2023-01-22T15:06:25.369Z,103148.84
2023-01-22T15:09:11.505Z,103150.56
2023-01-22T15:11:56.448Z,103150.09
2023-01-22T15:14:41.389Z,103144.72
2023-01-22T15:17:26.405Z,103147.16
2023-01-22T15:20:12.029Z,103142.03
2023-01-22T15:22:56.899Z,103144.47
2023-01-22T15:25:41.779Z,103153.00
2023-01-22T15:28:27.714Z,103155.94
2023-01-22T15:31:12.986Z,103153.47
2023-01-22T15:34:00.569Z,103155.34
2023-01-22T15:36:45.549Z,103149.34
2023-01-22T15:39:30.875Z,103151.16
2023-01-22T15:42:16.057Z,103146.00
2023-01-22T15:45:02.887Z,103152.94
2023-01-22T15:47:48.915Z,103156.44
2023-01-22T15:50:33.937Z,103153.84
2023-01-22T15:53:19.893Z,103152.13
2023-01-22T15:56:06.404Z,103152.16
2023-01-22T15:58:52.255Z,103155.63
2023-01-22T16:01:37.425Z,103158.25
2023-01-22T16:04:22.715Z,103153.94
2023-01-22T16:07:07.574Z,103171.22
2023-01-22T16:09:52.459Z,103166.03
2023-01-22T16:12:38.198Z,103176.41
2023-01-22T16:15:23.160Z,103172.13
2023-01-22T16:18:08.090Z,103166.06
2023-01-22T16:20:53.259Z,103167.78
2023-01-22T16:23:40.517Z,103161.72
2023-01-22T16:26:28.516Z,103157.38
2023-01-22T16:29:14.819Z,103172.09
2023-01-22T16:31:59.791Z,103179.00
2023-01-22T16:34:44.807Z,103188.47
2023-01-22T16:37:29.875Z,103186.75
2023-01-22T16:40:15.298Z,103192.75
2023-01-22T16:43:01.411Z,103200.50
2023-01-22T16:45:46.459Z,103206.47
2023-01-22T16:48:31.367Z,103199.53
2023-01-22T16:51:18.864Z,103195.22
2023-01-22T16:54:04.956Z,103200.31
2023-01-22T16:56:50.388Z,103204.59
2023-01-22T16:59:37.120Z,103207.19
2023-01-22T17:02:22.568Z,103202.84
2023-01-22T17:05:12.841Z,103202.84
2023-01-22T17:07:57.817Z,103186.34
2023-01-22T17:10:43.087Z,103202.75
2023-01-22T17:13:29.723Z,103207.03
2023-01-22T17:16:16.308Z,103200.13
2023-01-22T17:19:03.075Z,103187.09
2023-01-22T17:21:55.196Z,103199.25
2023-01-22T17:24:41.437Z,103203.53
2023-01-22T17:27:26.484Z,103200.94
2023-01-22T17:30:12.058Z,103207.84
2023-01-22T17:32:56.950Z,103212.97
2023-01-22T17:35:42.101Z,103209.47
2023-01-22T17:38:29.075Z,103217.19
2023-01-22T17:41:20.263Z,103224.91
2023-01-22T17:44:05.448Z,103232.66
2023-01-22T17:46:54.668Z,103223.09
2023-01-22T17:49:39.761Z,103223.94
2023-01-22T17:52:25.137Z,103200.59
2023-01-22T17:55:10.618Z,103218.72
2023-01-22T17:57:56.314Z,103214.38
2023-01-22T18:00:41.536Z,103220.38
2023-01-22T18:03:26.771Z,103218.59
2023-01-22T18:06:12.635Z,103222.84
2023-01-22T18:08:57.751Z,103217.59
2023-01-22T18:11:43.094Z,103219.31
2023-01-22T18:14:30.205Z,103227.94
2023-01-22T18:17:15.130Z,103227.88
2023-01-22T18:19:59.968Z,103229.53
2023-01-22T18:22:44.914Z,103231.19
2023-01-22T18:25:30.197Z,103216.50
2023-01-22T18:28:17.631Z,103229.44
2023-01-22T18:31:07.703Z,103209.47
2023-01-22T18:33:55.281Z,103231.09
2023-01-22T18:36:42.354Z,103231.94
2023-01-22T18:39:28.151Z,103226.69
2023-01-22T18:42:13.192Z,103228.28
2023-01-22T18:44:58.192Z,103215.25
2023-01-22T18:47:43.194Z,103236.88
2023-01-22T18:50:28.609Z,103220.41
2023-01-22T18:53:15.586Z,103242.81
2023-01-22T18:56:03.457Z,103244.47
2023-01-22T18:58:49.061Z,103237.59
2023-01-22T19:01:36.967Z,103228.03
2023-01-22T19:04:22.643Z,103232.34
2023-01-22T19:07:07.799Z,103253.88
2023-01-22T19:09:53.495Z,103258.75
2023-01-22T19:12:39.077Z,103257.72
2023-01-22T19:15:24.626Z,103255.19
2023-01-22T19:18:10.082Z,103258.66
2023-01-22T19:20:55.064Z,103269.72
2023-01-22T19:23:43.180Z,103267.94
2023-01-22T19:26:34.543Z,103273.00
2023-01-22T19:29:19.674Z,103258.09
2023-01-22T19:32:05.811Z,103269.34
2023-01-22T19:34:50.832Z,103277.06
2023-01-22T19:37:35.952Z,103258.78
2023-01-22T19:40:21.273Z,103280.44
2023-01-22T19:43:06.910Z,103284.63
2023-01-22T19:45:52.190Z,103294.03
2023-01-22T19:48:38.435Z,103299.19
2023-01-22T19:51:26.688Z,103294.03
2023-01-22T19:54:12.303Z,103310.19
2023-01-22T19:56:57.550Z,103307.53
2023-01-22T19:59:42.782Z,103310.91
2023-01-22T20:02:27.990Z,103316.88
2023-01-22T20:05:13.721Z,103314.13
2023-01-22T20:07:58.877Z,103320.09
2023-01-22T20:10:44.126Z,103332.81
2023-01-22T20:13:29.769Z,103314.53
2023-01-22T20:16:24.090Z,103332.66
2023-01-22T20:19:09.295Z,103335.31
2023-01-22T20:21:55.075Z,103321.25
2023-01-22T20:24:41.561Z,103331.69
2023-01-22T20:27:26.709Z,103308.09
2023-01-22T20:30:12.108Z,103313.25
2023-01-22T20:32:57.190Z,103330.69
2023-01-22T20:35:43.002Z,103335.88
2023-01-22T20:38:28.817Z,103332.38
2023-01-22T20:41:15.035Z,103335.81
2023-01-22T20:44:00.597Z,103333.16
2023-01-22T20:46:45.872Z,103340.81
2023-01-22T20:49:32.862Z,103327.63
2023-01-22T20:52:19.868Z,103341.47
2023-01-22T20:55:05.397Z,103338.81
2023-01-22T20:57:51.034Z,103334.41
2023-01-22T21:00:36.461Z,103306.44
2023-01-22T21:03:22.106Z,103330.81
2023-01-22T21:06:13.520Z,103337.63
2023-01-22T21:09:00.979Z,103323.78
2023-01-22T21:11:46.148Z,103328.94
2023-01-22T21:14:31.296Z,103322.03
2023-01-22T21:17:18.762Z,103317.66
2023-01-22T21:20:06.118Z,103317.56
2023-01-22T21:22:51.345Z,103326.22
2023-01-22T21:25:36.750Z,103325.34
2023-01-22T21:28:21.965Z,103322.69
2023-01-22T21:31:13.391Z,103327.72
2023-01-22T21:34:03.911Z,103326.78
2023-01-22T21:36:50.061Z,103327.50
2023-01-22T21:39:35.708Z,103322.44
2023-01-22T21:42:39.194Z,103322.50
2023-01-22T21:45:43.308Z,103324.13
2023-01-22T21:48:29.290Z,103332.81
2023-01-22T21:51:15.100Z,103324.97
2023-01-22T21:54:00.443Z,103333.38
2023-01-22T21:56:45.713Z,103314.13
2023-01-22T21:59:31.087Z,103313.16
2023-01-22T22:02:18.676Z,103327.81
2023-01-22T22:05:03.896Z,103300.22
2023-01-22T22:07:49.354Z,103314.94
2023-01-22T22:10:34.541Z,103311.56
2023-01-22T22:13:20.646Z,103303.91
2023-01-22T22:16:07.878Z,103310.94
2023-01-22T22:18:55.390Z,103303.53
2023-01-22T22:21:40.984Z,103293.81
2023-01-22T22:24:26.031Z,103314.50
2023-01-22T22:27:11.324Z,103320.44
2023-01-22T22:29:56.683Z,103321.22
2023-01-22T22:32:41.915Z,103319.41
2023-01-22T22:35:26.832Z,103317.56
2023-01-22T22:38:12.393Z,103302.75
2023-01-22T22:41:10.841Z,103319.22
2023-01-22T22:43:56.599Z,103329.41
2023-01-22T22:46:41.596Z,103325.06
2023-01-22T22:49:26.841Z,103299.88
2023-01-22T22:52:13.212Z,103324.81
2023-01-22T22:54:58.373Z,103314.53
2023-01-22T22:57:43.413Z,103311.78
2023-01-22T23:00:28.381Z,103291.56
2023-01-22T23:03:13.879Z,103326.41
2023-01-22T23:06:05.383Z,103322.84
2023-01-22T23:08:54.792Z,103287.41
2023-01-22T23:11:40.293Z,103311.59
2023-01-22T23:14:26.367Z,103318.31
2023-01-22T23:17:11.345Z,103320.72
2023-01-22T23:19:56.369Z,103300.06
2023-01-22T23:22:41.205Z,103311.34
2023-01-22T23:25:26.284Z,103314.75
2023-01-22T23:28:11.497Z,103327.53
2023-01-22T23:30:56.939Z,103313.63
2023-01-22T23:33:42.187Z,103315.22
2023-01-22T23:36:27.531Z,103316.84
2023-01-22T23:39:15.163Z,103312.69
2023-01-22T23:42:00.096Z,103312.78
2023-01-22T23:44:44.967Z,103314.28
2023-01-22T23:47:30.979Z,103318.63
2023-01-22T23:50:16.446Z,103294.31
2023-01-22T23:53:01.687Z,103316.84
2023-01-22T23:55:46.895Z,103314.19
2023-01-22T23:58:33.175Z,103318.47
